sensor_id;sensor_type;location;lat;lon;timestamp;P1;durP1;ratioP1;P2;durP2;ratioP2
79728;SDS011;69218;52.132;5.418;2023-07-31T00:00:17;1.85;;;0.32;;
79728;SDS011;69218;52.132;5.418;2023-07-31T00:02:43;2.25;;;0.30;;
79728;SDS011;69218;52.132;5.418;2023-07-31T00:05:10;2.35;;;0.40;;
79728;SDS011;69218;52.132;5.418;2023-07-31T00:07:36;1.83;;;0.43;;
79728;SDS011;69218;52.132;5.418;2023-07-31T00:10:03;1.90;;;0.75;;
79728;SDS011;69218;52.132;5.418;2023-07-31T00:12:30;1.70;;;0.52;;
79728;SDS011;69218;52.132;5.418;2023-07-31T00:14:56;2.38;;;0.43;;
79728;SDS011;69218;52.132;5.418;2023-07-31T00:17:23;3.08;;;0.50;;
79728;SDS011;69218;52.132;5.418;2023-07-31T00:19:49;1.95;;;0.60;;
79728;SDS011;69218;52.132;5.418;2023-07-31T00:22:16;1.35;;;0.45;;
79728;SDS011;69218;52.132;5.418;2023-07-31T00:24:43;1.83;;;0.43;;
79728;SDS011;69218;52.132;5.418;2023-07-31T00:27:10;1.75;;;0.52;;
79728;SDS011;69218;52.132;5.418;2023-07-31T00:29:36;3.00;;;1.00;;
79728;SDS011;69218;52.132;5.418;2023-07-31T00:32:03;2.83;;;0.70;;
79728;SDS011;69218;52.132;5.418;2023-07-31T00:34:30;2.13;;;0.50;;
79728;SDS011;69218;52.132;5.418;2023-07-31T00:36:56;4.10;;;1.10;;
79728;SDS011;69218;52.132;5.418;2023-07-31T00:39:23;4.40;;;0.75;;
79728;SDS011;69218;52.132;5.418;2023-07-31T00:41:49;2.30;;;0.80;;
79728;SDS011;69218;52.132;5.418;2023-07-31T00:44:16;5.57;;;1.45;;
79728;SDS011;69218;52.132;5.418;2023-07-31T00:46:42;7.60;;;1.58;;
79728;SDS011;69218;52.132;5.418;2023-07-31T00:49:09;8.80;;;2.22;;
79728;SDS011;69218;52.132;5.418;2023-07-31T00:51:37;10.30;;;2.50;;
79728;SDS011;69218;52.132;5.418;2023-07-31T00:54:03;7.63;;;1.95;;
79728;SDS011;69218;52.132;5.418;2023-07-31T00:56:30;6.85;;;2.20;;
79728;SDS011;69218;52.132;5.418;2023-07-31T00:58:57;13.43;;;2.60;;
79728;SDS011;69218;52.132;5.418;2023-07-31T01:01:23;6.00;;;2.30;;
79728;SDS011;69218;52.132;5.418;2023-07-31T01:03:50;8.93;;;2.53;;
79728;SDS011;69218;52.132;5.418;2023-07-31T01:11:53;14.98;;;3.33;;
79728;SDS011;69218;52.132;5.418;2023-07-31T01:14:23;13.30;;;3.08;;
79728;SDS011;69218;52.132;5.418;2023-07-31T01:16:49;11.25;;;3.35;;
79728;SDS011;69218;52.132;5.418;2023-07-31T01:19:17;13.75;;;2.97;;
79728;SDS011;69218;52.132;5.418;2023-07-31T01:21:53;13.32;;;3.13;;
79728;SDS011;69218;52.132;5.418;2023-07-31T01:24:28;9.55;;;2.35;;
79728;SDS011;69218;52.132;5.418;2023-07-31T01:27:06;5.97;;;1.85;;
79728;SDS011;69218;52.132;5.418;2023-07-31T01:30:22;5.82;;;1.85;;
79728;SDS011;69218;52.132;5.418;2023-07-31T01:32:49;5.93;;;1.80;;
79728;SDS011;69218;52.132;5.418;2023-07-31T01:35:17;5.03;;;1.70;;
79728;SDS011;69218;52.132;5.418;2023-07-31T01:37:45;7.13;;;2.25;;
79728;SDS011;69218;52.132;5.418;2023-07-31T01:40:11;6.53;;;1.90;;
79728;SDS011;69218;52.132;5.418;2023-07-31T01:42:38;5.03;;;1.63;;
79728;SDS011;69218;52.132;5.418;2023-07-31T01:45:04;8.02;;;2.40;;
79728;SDS011;69218;52.132;5.418;2023-07-31T01:47:32;9.65;;;2.25;;
79728;SDS011;69218;52.132;5.418;2023-07-31T01:49:58;8.63;;;2.30;;
79728;SDS011;69218;52.132;5.418;2023-07-31T01:52:26;9.48;;;2.80;;
79728;SDS011;69218;52.132;5.418;2023-07-31T01:54:52;11.77;;;3.10;;
79728;SDS011;69218;52.132;5.418;2023-07-31T01:57:21;11.52;;;2.95;;
79728;SDS011;69218;52.132;5.418;2023-07-31T01:59:48;13.80;;;2.80;;
79728;SDS011;69218;52.132;5.418;2023-07-31T02:02:15;12.65;;;3.38;;
79728;SDS011;69218;52.132;5.418;2023-07-31T02:04:42;10.57;;;2.75;;
79728;SDS011;69218;52.132;5.418;2023-07-31T02:07:09;12.00;;;3.20;;
79728;SDS011;69218;52.132;5.418;2023-07-31T02:09:35;10.82;;;2.90;;
79728;SDS011;69218;52.132;5.418;2023-07-31T02:12:01;7.95;;;2.97;;
79728;SDS011;69218;52.132;5.418;2023-07-31T02:14:28;9.02;;;2.60;;
79728;SDS011;69218;52.132;5.418;2023-07-31T02:16:54;9.18;;;2.65;;
79728;SDS011;69218;52.132;5.418;2023-07-31T02:19:21;8.15;;;2.38;;
79728;SDS011;69218;52.132;5.418;2023-07-31T02:21:47;12.73;;;2.88;;
79728;SDS011;69218;52.132;5.418;2023-07-31T02:24:14;12.38;;;3.25;;
79728;SDS011;69218;52.132;5.418;2023-07-31T02:26:40;10.18;;;3.10;;
79728;SDS011;69218;52.132;5.418;2023-07-31T02:29:08;10.02;;;3.38;;
79728;SDS011;69218;52.132;5.418;2023-07-31T02:31:35;11.68;;;2.97;;
79728;SDS011;69218;52.132;5.418;2023-07-31T02:34:02;9.43;;;2.83;;
79728;SDS011;69218;52.132;5.418;2023-07-31T02:36:28;9.18;;;2.63;;
79728;SDS011;69218;52.132;5.418;2023-07-31T02:38:54;8.70;;;2.60;;
79728;SDS011;69218;52.132;5.418;2023-07-31T02:41:21;9.18;;;2.65;;
79728;SDS011;69218;52.132;5.418;2023-07-31T02:43:48;9.40;;;2.78;;
79728;SDS011;69218;52.132;5.418;2023-07-31T02:46:14;10.68;;;2.67;;
79728;SDS011;69218;52.132;5.418;2023-07-31T02:48:41;9.38;;;2.80;;
79728;SDS011;69218;52.132;5.418;2023-07-31T02:51:07;8.93;;;2.60;;
79728;SDS011;69218;52.132;5.418;2023-07-31T02:53:34;6.63;;;2.80;;
79728;SDS011;69218;52.132;5.418;2023-07-31T02:56:00;9.50;;;2.55;;
79728;SDS011;69218;52.132;5.418;2023-07-31T02:58:27;13.00;;;3.05;;
79728;SDS011;69218;52.132;5.418;2023-07-31T03:00:53;10.73;;;3.22;;
79728;SDS011;69218;52.132;5.418;2023-07-31T03:03:20;11.95;;;3.03;;
79728;SDS011;69218;52.132;5.418;2023-07-31T03:05:46;11.10;;;2.63;;
79728;SDS011;69218;52.132;5.418;2023-07-31T03:08:13;9.18;;;2.53;;
79728;SDS011;69218;52.132;5.418;2023-07-31T03:10:39;13.52;;;3.53;;
79728;SDS011;69218;52.132;5.418;2023-07-31T03:13:06;9.45;;;2.95;;
79728;SDS011;69218;52.132;5.418;2023-07-31T03:15:33;14.90;;;3.40;;
79728;SDS011;69218;52.132;5.418;2023-07-31T03:17:59;13.50;;;3.55;;
79728;SDS011;69218;52.132;5.418;2023-07-31T03:20:26;11.10;;;2.80;;
79728;SDS011;69218;52.132;5.418;2023-07-31T03:22:52;13.30;;;3.30;;
79728;SDS011;69218;52.132;5.418;2023-07-31T03:25:19;11.07;;;3.63;;
79728;SDS011;69218;52.132;5.418;2023-07-31T03:27:45;13.85;;;3.30;;
79728;SDS011;69218;52.132;5.418;2023-07-31T03:30:12;10.23;;;3.10;;
79728;SDS011;69218;52.132;5.418;2023-07-31T03:32:38;7.72;;;2.88;;
79728;SDS011;69218;52.132;5.418;2023-07-31T03:35:05;11.63;;;3.42;;
79728;SDS011;69218;52.132;5.418;2023-07-31T03:37:32;13.55;;;3.20;;
79728;SDS011;69218;52.132;5.418;2023-07-31T03:39:58;12.93;;;3.53;;
79728;SDS011;69218;52.132;5.418;2023-07-31T03:42:25;12.07;;;3.50;;
79728;SDS011;69218;52.132;5.418;2023-07-31T03:44:51;11.48;;;3.45;;
79728;SDS011;69218;52.132;5.418;2023-07-31T03:47:18;12.85;;;3.47;;
79728;SDS011;69218;52.132;5.418;2023-07-31T03:49:44;14.07;;;3.38;;
79728;SDS011;69218;52.132;5.418;2023-07-31T03:52:11;10.73;;;3.28;;
79728;SDS011;69218;52.132;5.418;2023-07-31T03:54:37;12.27;;;3.53;;
79728;SDS011;69218;52.132;5.418;2023-07-31T03:57:04;12.10;;;3.50;;
79728;SDS011;69218;52.132;5.418;2023-07-31T03:59:31;10.38;;;3.40;;
79728;SDS011;69218;52.132;5.418;2023-07-31T04:01:57;11.27;;;3.33;;
79728;SDS011;69218;52.132;5.418;2023-07-31T04:04:24;12.45;;;3.10;;
79728;SDS011;69218;52.132;5.418;2023-07-31T04:06:50;10.40;;;3.53;;
79728;SDS011;69218;52.132;5.418;2023-07-31T04:09:18;11.38;;;3.47;;
79728;SDS011;69218;52.132;5.418;2023-07-31T04:11:45;13.43;;;3.55;;
79728;SDS011;69218;52.132;5.418;2023-07-31T04:14:12;14.40;;;3.45;;
79728;SDS011;69218;52.132;5.418;2023-07-31T04:16:39;12.82;;;3.08;;
79728;SDS011;69218;52.132;5.418;2023-07-31T04:19:06;17.75;;;3.60;;
79728;SDS011;69218;52.132;5.418;2023-07-31T04:21:33;11.25;;;3.42;;
79728;SDS011;69218;52.132;5.418;2023-07-31T04:23:59;9.65;;;3.35;;
79728;SDS011;69218;52.132;5.418;2023-07-31T04:26:26;11.10;;;3.55;;
79728;SDS011;69218;52.132;5.418;2023-07-31T04:28:52;13.20;;;3.28;;
79728;SDS011;69218;52.132;5.418;2023-07-31T04:31:19;9.63;;;3.00;;
79728;SDS011;69218;52.132;5.418;2023-07-31T04:33:45;9.48;;;3.47;;
79728;SDS011;69218;52.132;5.418;2023-07-31T04:36:12;11.25;;;3.40;;
79728;SDS011;69218;52.132;5.418;2023-07-31T04:38:38;10.43;;;3.03;;
79728;SDS011;69218;52.132;5.418;2023-07-31T04:41:05;9.70;;;3.08;;
79728;SDS011;69218;52.132;5.418;2023-07-31T04:43:31;11.35;;;3.10;;
79728;SDS011;69218;52.132;5.418;2023-07-31T04:45:58;10.52;;;3.40;;
79728;SDS011;69218;52.132;5.418;2023-07-31T04:48:25;10.38;;;3.33;;
79728;SDS011;69218;52.132;5.418;2023-07-31T04:50:51;12.43;;;3.50;;
79728;SDS011;69218;52.132;5.418;2023-07-31T04:53:18;9.43;;;3.00;;
79728;SDS011;69218;52.132;5.418;2023-07-31T04:55:45;11.02;;;3.20;;
79728;SDS011;69218;52.132;5.418;2023-07-31T04:58:11;12.93;;;3.00;;
79728;SDS011;69218;52.132;5.418;2023-07-31T05:00:38;10.73;;;3.72;;
79728;SDS011;69218;52.132;5.418;2023-07-31T05:03:04;12.40;;;3.22;;
79728;SDS011;69218;52.132;5.418;2023-07-31T05:05:31;13.15;;;3.10;;
79728;SDS011;69218;52.132;5.418;2023-07-31T05:07:58;9.43;;;3.22;;
79728;SDS011;69218;52.132;5.418;2023-07-31T05:10:24;8.95;;;2.92;;
79728;SDS011;69218;52.132;5.418;2023-07-31T05:12:51;12.38;;;3.03;;
79728;SDS011;69218;52.132;5.418;2023-07-31T05:15:17;6.90;;;2.55;;
79728;SDS011;69218;52.132;5.418;2023-07-31T05:17:44;11.32;;;3.22;;
79728;SDS011;69218;52.132;5.418;2023-07-31T05:20:10;7.85;;;3.00;;
79728;SDS011;69218;52.132;5.418;2023-07-31T05:22:37;10.05;;;3.22;;
79728;SDS011;69218;52.132;5.418;2023-07-31T05:25:04;8.40;;;3.53;;
79728;SDS011;69218;52.132;5.418;2023-07-31T05:27:31;9.75;;;3.17;;
79728;SDS011;69218;52.132;5.418;2023-07-31T05:29:57;9.63;;;3.22;;
79728;SDS011;69218;52.132;5.418;2023-07-31T05:32:24;9.70;;;3.20;;
79728;SDS011;69218;52.132;5.418;2023-07-31T05:34:51;10.77;;;3.08;;
79728;SDS011;69218;52.132;5.418;2023-07-31T05:37:19;7.97;;;2.95;;
79728;SDS011;69218;52.132;5.418;2023-07-31T05:39:45;7.82;;;2.40;;
79728;SDS011;69218;52.132;5.418;2023-07-31T05:42:12;7.07;;;2.13;;
79728;SDS011;69218;52.132;5.418;2023-07-31T05:44:38;6.90;;;2.08;;
79728;SDS011;69218;52.132;5.418;2023-07-31T05:47:05;5.63;;;1.77;;
79728;SDS011;69218;52.132;5.418;2023-07-31T05:49:31;4.97;;;1.85;;
79728;SDS011;69218;52.132;5.418;2023-07-31T05:51:58;6.82;;;2.13;;
79728;SDS011;69218;52.132;5.418;2023-07-31T05:54:24;5.97;;;2.17;;
79728;SDS011;69218;52.132;5.418;2023-07-31T05:56:51;5.32;;;1.92;;
79728;SDS011;69218;52.132;5.418;2023-07-31T05:59:17;5.40;;;2.20;;
79728;SDS011;69218;52.132;5.418;2023-07-31T06:01:44;5.10;;;2.53;;
79728;SDS011;69218;52.132;5.418;2023-07-31T06:04:11;7.15;;;2.10;;
79728;SDS011;69218;52.132;5.418;2023-07-31T06:06:37;9.15;;;2.33;;
79728;SDS011;69218;52.132;5.418;2023-07-31T06:09:04;6.35;;;2.55;;
79728;SDS011;69218;52.132;5.418;2023-07-31T06:11:31;6.93;;;2.13;;
79728;SDS011;69218;52.132;5.418;2023-07-31T06:13:57;5.90;;;2.58;;
79728;SDS011;69218;52.132;5.418;2023-07-31T06:16:24;7.28;;;2.75;;
79728;SDS011;69218;52.132;5.418;2023-07-31T06:18:51;6.57;;;2.67;;
79728;SDS011;69218;52.132;5.418;2023-07-31T06:21:18;5.97;;;1.98;;
79728;SDS011;69218;52.132;5.418;2023-07-31T06:23:44;5.57;;;2.25;;
79728;SDS011;69218;52.132;5.418;2023-07-31T06:26:11;7.18;;;2.20;;
79728;SDS011;69218;52.132;5.418;2023-07-31T06:28:37;5.20;;;2.25;;
79728;SDS011;69218;52.132;5.418;2023-07-31T06:31:04;7.45;;;2.30;;
79728;SDS011;69218;52.132;5.418;2023-07-31T06:33:30;4.53;;;2.03;;
79728;SDS011;69218;52.132;5.418;2023-07-31T06:35:57;8.02;;;2.15;;
79728;SDS011;69218;52.132;5.418;2023-07-31T06:38:26;6.60;;;2.58;;
79728;SDS011;69218;52.132;5.418;2023-07-31T06:40:53;6.57;;;2.03;;
79728;SDS011;69218;52.132;5.418;2023-07-31T06:43:19;4.70;;;1.70;;
79728;SDS011;69218;52.132;5.418;2023-07-31T06:45:46;4.90;;;1.90;;
79728;SDS011;69218;52.132;5.418;2023-07-31T06:48:14;5.35;;;1.88;;
79728;SDS011;69218;52.132;5.418;2023-07-31T06:50:41;5.60;;;2.65;;
79728;SDS011;69218;52.132;5.418;2023-07-31T06:53:07;5.38;;;2.00;;
79728;SDS011;69218;52.132;5.418;2023-07-31T06:55:34;5.15;;;1.90;;
79728;SDS011;69218;52.132;5.418;2023-07-31T06:58:00;4.38;;;2.35;;
79728;SDS011;69218;52.132;5.418;2023-07-31T07:00:27;4.65;;;1.73;;
79728;SDS011;69218;52.132;5.418;2023-07-31T07:02:54;4.65;;;1.90;;
79728;SDS011;69218;52.132;5.418;2023-07-31T07:05:21;3.83;;;1.60;;
79728;SDS011;69218;52.132;5.418;2023-07-31T07:07:49;4.22;;;2.10;;
79728;SDS011;69218;52.132;5.418;2023-07-31T07:10:16;3.90;;;1.70;;
79728;SDS011;69218;52.132;5.418;2023-07-31T07:12:44;4.28;;;2.00;;
79728;SDS011;69218;52.132;5.418;2023-07-31T07:15:10;3.67;;;1.92;;
79728;SDS011;69218;52.132;5.418;2023-07-31T07:17:37;4.70;;;2.03;;
79728;SDS011;69218;52.132;5.418;2023-07-31T07:20:03;4.68;;;2.15;;
79728;SDS011;69218;52.132;5.418;2023-07-31T07:22:30;4.78;;;2.20;;
79728;SDS011;69218;52.132;5.418;2023-07-31T07:24:57;5.10;;;1.75;;
79728;SDS011;69218;52.132;5.418;2023-07-31T07:27:23;3.83;;;2.08;;
79728;SDS011;69218;52.132;5.418;2023-07-31T07:29:50;4.88;;;2.40;;
79728;SDS011;69218;52.132;5.418;2023-07-31T07:32:20;7.57;;;2.22;;
79728;SDS011;69218;52.132;5.418;2023-07-31T07:34:47;3.67;;;2.13;;
79728;SDS011;69218;52.132;5.418;2023-07-31T07:37:15;5.60;;;2.15;;
79728;SDS011;69218;52.132;5.418;2023-07-31T07:39:42;4.03;;;1.90;;
79728;SDS011;69218;52.132;5.418;2023-07-31T07:42:08;5.45;;;1.70;;
79728;SDS011;69218;52.132;5.418;2023-07-31T07:44:35;3.20;;;1.65;;
79728;SDS011;69218;52.132;5.418;2023-07-31T07:47:02;4.63;;;2.25;;
79728;SDS011;69218;52.132;5.418;2023-07-31T07:49:28;4.45;;;2.13;;
79728;SDS011;69218;52.132;5.418;2023-07-31T07:51:55;4.82;;;2.20;;
79728;SDS011;69218;52.132;5.418;2023-07-31T07:54:21;4.28;;;1.88;;
79728;SDS011;69218;52.132;5.418;2023-07-31T07:56:48;4.30;;;2.03;;
79728;SDS011;69218;52.132;5.418;2023-07-31T07:59:15;4.93;;;1.73;;
79728;SDS011;69218;52.132;5.418;2023-07-31T08:01:42;4.65;;;1.55;;
79728;SDS011;69218;52.132;5.418;2023-07-31T08:04:08;3.72;;;1.52;;
79728;SDS011;69218;52.132;5.418;2023-07-31T08:06:35;3.38;;;1.50;;
79728;SDS011;69218;52.132;5.418;2023-07-31T08:09:01;4.07;;;1.70;;
79728;SDS011;69218;52.132;5.418;2023-07-31T08:11:32;4.35;;;1.77;;
79728;SDS011;69218;52.132;5.418;2023-07-31T08:13:59;2.42;;;1.15;;
79728;SDS011;69218;52.132;5.418;2023-07-31T08:16:26;4.20;;;1.38;;
79728;SDS011;69218;52.132;5.418;2023-07-31T08:18:53;3.05;;;1.40;;
79728;SDS011;69218;52.132;5.418;2023-07-31T08:21:20;3.20;;;1.50;;
79728;SDS011;69218;52.132;5.418;2023-07-31T08:23:47;4.32;;;1.20;;
79728;SDS011;69218;52.132;5.418;2023-07-31T08:26:17;2.58;;;1.13;;
79728;SDS011;69218;52.132;5.418;2023-07-31T08:28:45;2.22;;;1.02;;
79728;SDS011;69218;52.132;5.418;2023-07-31T08:31:11;2.85;;;1.20;;
79728;SDS011;69218;52.132;5.418;2023-07-31T08:33:38;3.50;;;1.35;;
79728;SDS011;69218;52.132;5.418;2023-07-31T08:36:06;2.80;;;1.23;;
79728;SDS011;69218;52.132;5.418;2023-07-31T08:38:33;2.03;;;0.77;;
79728;SDS011;69218;52.132;5.418;2023-07-31T08:40:59;1.73;;;0.68;;
79728;SDS011;69218;52.132;5.418;2023-07-31T08:43:26;1.80;;;0.77;;
79728;SDS011;69218;52.132;5.418;2023-07-31T08:45:54;2.58;;;1.02;;
79728;SDS011;69218;52.132;5.418;2023-07-31T08:48:21;1.67;;;0.73;;
79728;SDS011;69218;52.132;5.418;2023-07-31T08:50:51;1.42;;;0.63;;
79728;SDS011;69218;52.132;5.418;2023-07-31T08:53:18;2.67;;;0.82;;
79728;SDS011;69218;52.132;5.418;2023-07-31T08:55:46;1.60;;;0.63;;
79728;SDS011;69218;52.132;5.418;2023-07-31T08:58:14;2.67;;;1.08;;
79728;SDS011;69218;52.132;5.418;2023-07-31T09:00:41;1.80;;;0.75;;
79728;SDS011;69218;52.132;5.418;2023-07-31T09:03:14;2.42;;;0.60;;
79728;SDS011;69218;52.132;5.418;2023-07-31T09:05:46;2.78;;;0.77;;
79728;SDS011;69218;52.132;5.418;2023-07-31T09:08:13;1.58;;;0.55;;
79728;SDS011;69218;52.132;5.418;2023-07-31T09:10:42;1.73;;;0.60;;
79728;SDS011;69218;52.132;5.418;2023-07-31T09:13:10;1.50;;;0.90;;
79728;SDS011;69218;52.132;5.418;2023-07-31T09:15:39;2.95;;;1.08;;
79728;SDS011;69218;52.132;5.418;2023-07-31T09:18:06;1.90;;;0.82;;
79728;SDS011;69218;52.132;5.418;2023-07-31T09:20:34;2.13;;;0.82;;
79728;SDS011;69218;52.132;5.418;2023-07-31T09:23:11;3.25;;;0.90;;
79728;SDS011;69218;52.132;5.418;2023-07-31T09:25:39;2.85;;;1.30;;
79728;SDS011;69218;52.132;5.418;2023-07-31T09:28:07;2.28;;;0.90;;
79728;SDS011;69218;52.132;5.418;2023-07-31T09:30:49;2.38;;;1.10;;
79728;SDS011;69218;52.132;5.418;2023-07-31T09:33:17;2.13;;;1.20;;
79728;SDS011;69218;52.132;5.418;2023-07-31T09:35:45;2.70;;;1.05;;
79728;SDS011;69218;52.132;5.418;2023-07-31T09:38:15;2.30;;;1.20;;
79728;SDS011;69218;52.132;5.418;2023-07-31T09:40:45;2.85;;;1.13;;
79728;SDS011;69218;52.132;5.418;2023-07-31T09:43:17;2.53;;;0.80;;
79728;SDS011;69218;52.132;5.418;2023-07-31T09:45:45;2.65;;;0.85;;
79728;SDS011;69218;52.132;5.418;2023-07-31T09:48:13;2.47;;;1.10;;
79728;SDS011;69218;52.132;5.418;2023-07-31T09:50:44;2.47;;;1.13;;
79728;SDS011;69218;52.132;5.418;2023-07-31T09:53:11;3.15;;;1.08;;
79728;SDS011;69218;52.132;5.418;2023-07-31T09:55:39;4.82;;;1.15;;
79728;SDS011;69218;52.132;5.418;2023-07-31T09:58:07;3.85;;;1.20;;
79728;SDS011;69218;52.132;5.418;2023-07-31T10:03:04;2.72;;;1.15;;
79728;SDS011;69218;52.132;5.418;2023-07-31T10:05:36;2.75;;;1.25;;
79728;SDS011;69218;52.132;5.418;2023-07-31T10:08:06;2.67;;;1.20;;
79728;SDS011;69218;52.132;5.418;2023-07-31T10:10:39;2.70;;;1.20;;
79728;SDS011;69218;52.132;5.418;2023-07-31T10:13:08;2.30;;;0.98;;
79728;SDS011;69218;52.132;5.418;2023-07-31T10:15:36;2.65;;;1.10;;
79728;SDS011;69218;52.132;5.418;2023-07-31T10:18:03;3.28;;;1.20;;
79728;SDS011;69218;52.132;5.418;2023-07-31T10:20:32;2.30;;;1.23;;
79728;SDS011;69218;52.132;5.418;2023-07-31T10:23:00;4.90;;;1.52;;
79728;SDS011;69218;52.132;5.418;2023-07-31T10:25:27;4.25;;;1.63;;
79728;SDS011;69218;52.132;5.418;2023-07-31T10:27:54;3.88;;;1.85;;
79728;SDS011;69218;52.132;5.418;2023-07-31T10:30:22;3.80;;;1.70;;
79728;SDS011;69218;52.132;5.418;2023-07-31T10:32:53;4.18;;;1.73;;
79728;SDS011;69218;52.132;5.418;2023-07-31T10:35:20;3.72;;;2.10;;
79728;SDS011;69218;52.132;5.418;2023-07-31T10:37:48;4.00;;;2.10;;
79728;SDS011;69218;52.132;5.418;2023-07-31T10:45:26;7.05;;;2.70;;
79728;SDS011;69218;52.132;5.418;2023-07-31T10:48:02;4.07;;;2.13;;
79728;SDS011;69218;52.132;5.418;2023-07-31T10:50:31;4.47;;;2.10;;
79728;SDS011;69218;52.132;5.418;2023-07-31T10:52:59;5.38;;;2.00;;
79728;SDS011;69218;52.132;5.418;2023-07-31T10:55:42;3.88;;;1.95;;
79728;SDS011;69218;52.132;5.418;2023-07-31T10:58:17;5.55;;;2.20;;
79728;SDS011;69218;52.132;5.418;2023-07-31T11:00:45;3.60;;;2.00;;
79728;SDS011;69218;52.132;5.418;2023-07-31T11:03:15;3.53;;;1.85;;
79728;SDS011;69218;52.132;5.418;2023-07-31T11:05:44;4.63;;;1.80;;
79728;SDS011;69218;52.132;5.418;2023-07-31T11:08:31;4.65;;;2.05;;
79728;SDS011;69218;52.132;5.418;2023-07-31T11:13:28;3.55;;;1.38;;
79728;SDS011;69218;52.132;5.418;2023-07-31T11:15:56;2.78;;;1.63;;
79728;SDS011;69218;52.132;5.418;2023-07-31T11:18:22;3.05;;;1.48;;
79728;SDS011;69218;52.132;5.418;2023-07-31T11:20:49;3.17;;;1.40;;
79728;SDS011;69218;52.132;5.418;2023-07-31T11:23:18;2.92;;;1.17;;
79728;SDS011;69218;52.132;5.418;2023-07-31T11:25:46;3.15;;;1.23;;
79728;SDS011;69218;52.132;5.418;2023-07-31T11:28:14;2.15;;;1.10;;
79728;SDS011;69218;52.132;5.418;2023-07-31T11:30:42;3.40;;;1.27;;
79728;SDS011;69218;52.132;5.418;2023-07-31T11:33:10;3.10;;;1.35;;
79728;SDS011;69218;52.132;5.418;2023-07-31T11:38:21;2.72;;;0.85;;
79728;SDS011;69218;52.132;5.418;2023-07-31T11:40:50;2.38;;;0.93;;
79728;SDS011;69218;52.132;5.418;2023-07-31T11:43:17;2.42;;;1.02;;
79728;SDS011;69218;52.132;5.418;2023-07-31T11:45:45;2.63;;;1.23;;
79728;SDS011;69218;52.132;5.418;2023-07-31T11:48:23;2.22;;;1.08;;
79728;SDS011;69218;52.132;5.418;2023-07-31T11:50:51;2.17;;;1.20;;
79728;SDS011;69218;52.132;5.418;2023-07-31T11:53:19;3.50;;;1.27;;
79728;SDS011;69218;52.132;5.418;2023-07-31T11:55:55;2.65;;;1.13;;
79728;SDS011;69218;52.132;5.418;2023-07-31T11:58:24;3.22;;;1.42;;
79728;SDS011;69218;52.132;5.418;2023-07-31T12:00:51;3.08;;;1.50;;
79728;SDS011;69218;52.132;5.418;2023-07-31T12:03:19;3.50;;;1.50;;
79728;SDS011;69218;52.132;5.418;2023-07-31T12:05:47;2.97;;;1.60;;
79728;SDS011;69218;52.132;5.418;2023-07-31T12:08:14;4.05;;;1.70;;
79728;SDS011;69218;52.132;5.418;2023-07-31T12:10:41;3.50;;;1.77;;
79728;SDS011;69218;52.132;5.418;2023-07-31T12:13:09;4.10;;;1.85;;
79728;SDS011;69218;52.132;5.418;2023-07-31T12:18:10;4.25;;;1.70;;
79728;SDS011;69218;52.132;5.418;2023-07-31T12:20:43;3.90;;;1.60;;
79728;SDS011;69218;52.132;5.418;2023-07-31T12:25:40;2.95;;;1.40;;
79728;SDS011;69218;52.132;5.418;2023-07-31T12:28:07;3.97;;;2.30;;
79728;SDS011;69218;52.132;5.418;2023-07-31T12:30:38;2.90;;;1.65;;
79728;SDS011;69218;52.132;5.418;2023-07-31T12:33:10;3.33;;;1.63;;
79728;SDS011;69218;52.132;5.418;2023-07-31T12:35:41;2.83;;;1.63;;
79728;SDS011;69218;52.132;5.418;2023-07-31T12:38:10;2.78;;;1.23;;
79728;SDS011;69218;52.132;5.418;2023-07-31T12:40:38;3.00;;;1.33;;
79728;SDS011;69218;52.132;5.418;2023-07-31T12:43:05;3.35;;;1.42;;
79728;SDS011;69218;52.132;5.418;2023-07-31T12:45:33;2.92;;;1.48;;
79728;SDS011;69218;52.132;5.418;2023-07-31T12:48:01;3.45;;;1.48;;
79728;SDS011;69218;52.132;5.418;2023-07-31T12:50:28;3.88;;;1.73;;
79728;SDS011;69218;52.132;5.418;2023-07-31T12:52:54;3.10;;;1.65;;
79728;SDS011;69218;52.132;5.418;2023-07-31T12:55:24;3.72;;;1.50;;
79728;SDS011;69218;52.132;5.418;2023-07-31T12:57:50;3.20;;;1.92;;
79728;SDS011;69218;52.132;5.418;2023-07-31T13:00:21;3.53;;;1.88;;
79728;SDS011;69218;52.132;5.418;2023-07-31T13:02:48;3.67;;;1.95;;
79728;SDS011;69218;52.132;5.418;2023-07-31T13:05:15;4.32;;;2.47;;
79728;SDS011;69218;52.132;5.418;2023-07-31T13:07:41;3.92;;;2.08;;
79728;SDS011;69218;52.132;5.418;2023-07-31T13:10:08;3.95;;;1.98;;
79728;SDS011;69218;52.132;5.418;2023-07-31T13:12:35;4.40;;;2.15;;
79728;SDS011;69218;52.132;5.418;2023-07-31T13:15:02;3.92;;;2.15;;
79728;SDS011;69218;52.132;5.418;2023-07-31T13:17:29;3.95;;;1.95;;
79728;SDS011;69218;52.132;5.418;2023-07-31T13:19:55;3.75;;;2.20;;
79728;SDS011;69218;52.132;5.418;2023-07-31T13:22:22;3.67;;;2.13;;
79728;SDS011;69218;52.132;5.418;2023-07-31T13:24:49;4.38;;;2.28;;
79728;SDS011;69218;52.132;5.418;2023-07-31T13:27:16;3.20;;;1.92;;
79728;SDS011;69218;52.132;5.418;2023-07-31T13:29:45;3.30;;;1.77;;
79728;SDS011;69218;52.132;5.418;2023-07-31T13:32:11;3.67;;;1.70;;
79728;SDS011;69218;52.132;5.418;2023-07-31T13:34:38;3.22;;;1.83;;
79728;SDS011;69218;52.132;5.418;2023-07-31T13:37:05;3.50;;;1.90;;
79728;SDS011;69218;52.132;5.418;2023-07-31T13:39:34;4.55;;;2.35;;
79728;SDS011;69218;52.132;5.418;2023-07-31T13:42:04;5.32;;;1.92;;
79728;SDS011;69218;52.132;5.418;2023-07-31T13:44:34;3.67;;;1.55;;
79728;SDS011;69218;52.132;5.418;2023-07-31T13:47:01;3.03;;;1.60;;
79728;SDS011;69218;52.132;5.418;2023-07-31T13:49:28;3.10;;;1.40;;
79728;SDS011;69218;52.132;5.418;2023-07-31T13:51:56;2.50;;;1.40;;
79728;SDS011;69218;52.132;5.418;2023-07-31T13:54:24;2.03;;;0.93;;
79728;SDS011;69218;52.132;5.418;2023-07-31T13:56:56;2.13;;;0.80;;
79728;SDS011;69218;52.132;5.418;2023-07-31T13:59:22;3.08;;;1.10;;
79728;SDS011;69218;52.132;5.418;2023-07-31T14:01:49;2.30;;;1.10;;
79728;SDS011;69218;52.132;5.418;2023-07-31T14:04:16;3.17;;;1.02;;
79728;SDS011;69218;52.132;5.418;2023-07-31T14:06:43;2.80;;;0.82;;
79728;SDS011;69218;52.132;5.418;2023-07-31T14:09:10;1.70;;;0.68;;
79728;SDS011;69218;52.132;5.418;2023-07-31T14:11:37;1.63;;;0.70;;
79728;SDS011;69218;52.132;5.418;2023-07-31T14:14:08;2.08;;;0.82;;
79728;SDS011;69218;52.132;5.418;2023-07-31T14:16:35;2.50;;;1.13;;
79728;SDS011;69218;52.132;5.418;2023-07-31T14:19:02;2.08;;;0.90;;
79728;SDS011;69218;52.132;5.418;2023-07-31T14:21:29;2.28;;;0.85;;
79728;SDS011;69218;52.132;5.418;2023-07-31T14:23:55;3.10;;;1.58;;
79728;SDS011;69218;52.132;5.418;2023-07-31T14:26:22;3.33;;;1.70;;
79728;SDS011;69218;52.132;5.418;2023-07-31T14:28:48;3.65;;;2.13;;
79728;SDS011;69218;52.132;5.418;2023-07-31T14:31:15;5.80;;;2.72;;
79728;SDS011;69218;52.132;5.418;2023-07-31T14:33:41;5.28;;;3.25;;
79728;SDS011;69218;52.132;5.418;2023-07-31T14:36:08;6.15;;;3.15;;
79728;SDS011;69218;52.132;5.418;2023-07-31T14:38:34;4.75;;;3.10;;
79728;SDS011;69218;52.132;5.418;2023-07-31T14:41:01;6.00;;;3.17;;
79728;SDS011;69218;52.132;5.418;2023-07-31T14:43:28;5.13;;;3.17;;
79728;SDS011;69218;52.132;5.418;2023-07-31T14:45:54;6.20;;;3.72;;
79728;SDS011;69218;52.132;5.418;2023-07-31T14:48:24;5.05;;;3.00;;
79728;SDS011;69218;52.132;5.418;2023-07-31T14:50:50;6.07;;;3.78;;
79728;SDS011;69218;52.132;5.418;2023-07-31T14:53:17;5.03;;;3.08;;
79728;SDS011;69218;52.132;5.418;2023-07-31T14:55:43;7.03;;;3.13;;
79728;SDS011;69218;52.132;5.418;2023-07-31T14:58:10;5.55;;;3.00;;
79728;SDS011;69218;52.132;5.418;2023-07-31T15:00:38;4.25;;;2.40;;
79728;SDS011;69218;52.132;5.418;2023-07-31T15:03:05;5.40;;;3.03;;
79728;SDS011;69218;52.132;5.418;2023-07-31T15:05:31;3.92;;;2.78;;
79728;SDS011;69218;52.132;5.418;2023-07-31T15:07:58;4.47;;;2.60;;
79728;SDS011;69218;52.132;5.418;2023-07-31T15:10:24;4.65;;;2.53;;